createdAt,value
2019-03-27T00:00:37.568Z,95.37
2019-03-27T00:01:37.536Z,95.57
2019-03-27T00:02:37.524Z,95.68
2019-03-27T00:03:37.574Z,95.57
2019-03-27T00:04:37.511Z,95.57
2019-03-27T00:05:37.481Z,95.57
2019-03-27T00:06:37.474Z,95.74
2019-03-27T00:07:37.464Z,95.64
2019-03-27T00:08:37.453Z,95.64
2019-03-27T00:09:37.475Z,94.91
2019-03-27T00:10:37.437Z,94.87
2019-03-27T00:11:37.425Z,94.91
2019-03-27T00:12:37.417Z,94.14
2019-03-27T00:13:37.397Z,94.60
2019-03-27T00:14:37.420Z,94.56
2019-03-27T00:15:37.390Z,93.83
2019-03-27T00:16:37.379Z,93.73
2019-03-27T00:17:37.358Z,93.79
2019-03-27T00:18:37.347Z,93.68
2019-03-27T00:19:37.338Z,93.58
2019-03-27T00:20:37.356Z,92.85
2019-03-27T00:21:37.319Z,92.96
2019-03-27T00:22:37.307Z,92.96
2019-03-27T00:23:37.301Z,93.06
2019-03-27T00:24:37.298Z,92.76
2019-03-27T00:25:37.292Z,92.44
2019-03-27T00:26:37.251Z,92.44
2019-03-27T00:27:37.248Z,92.44
2019-03-27T00:28:37.230Z,92.34
2019-03-27T00:29:37.237Z,92.13
2019-03-27T00:30:37.246Z,92.34
2019-03-27T00:31:37.216Z,92.44
2019-03-27T00:32:37.188Z,92.44
2019-03-27T00:33:37.199Z,92.65
2019-03-27T00:34:37.171Z,92.34
2019-03-27T00:35:37.169Z,92.34
2019-03-27T00:36:37.175Z,92.34
2019-03-27T00:37:37.134Z,92.34
2019-03-27T00:38:37.125Z,92.65
2019-03-27T00:39:37.109Z,92.55
2019-03-27T00:40:37.106Z,92.65
2019-03-27T00:41:37.354Z,92.34
2019-03-27T00:42:37.085Z,92.55
2019-03-27T00:43:37.081Z,92.44
2019-03-27T00:44:37.074Z,92.34
2019-03-27T00:45:37.050Z,92.34
2019-03-27T00:46:37.052Z,92.65
2019-03-27T00:47:37.058Z,92.61
2019-03-27T00:48:37.024Z,92.44
2019-03-27T00:49:37.005Z,92.71
2019-03-27T00:50:36.995Z,92.55
2019-03-27T00:51:37.007Z,92.55
2019-03-27T00:52:36.982Z,93.06
2019-03-27T00:53:36.968Z,92.85
2019-03-27T00:54:36.964Z,93.27
2019-03-27T00:55:36.949Z,93.37
2019-03-27T00:56:36.964Z,93.27
2019-03-27T00:57:36.909Z,93.06
2019-03-27T00:58:36.903Z,93.48
2019-03-27T00:59:36.897Z,93.33
2019-03-27T01:00:36.874Z,93.48
2019-03-27T01:01:36.879Z,93.48
2019-03-27T01:02:36.885Z,93.37
2019-03-27T01:03:36.864Z,92.96
2019-03-27T01:04:36.838Z,93.06
2019-03-27T01:05:36.838Z,93.23
2019-03-27T01:06:36.876Z,93.02
2019-03-27T01:07:36.829Z,92.81
2019-03-27T01:08:36.803Z,93.12
2019-03-27T01:09:36.805Z,93.16
2019-03-27T01:10:36.775Z,92.91
2019-03-27T01:11:36.757Z,93.16
2019-03-27T01:12:36.767Z,93.12
2019-03-27T01:13:36.755Z,92.91
2019-03-27T01:14:36.744Z,92.71
2019-03-27T01:15:40.126Z,93.23
2019-03-27T01:16:36.713Z,92.71
2019-03-27T01:17:36.728Z,92.91
2019-03-27T01:18:36.685Z,92.81
2019-03-27T01:19:36.687Z,92.81
2019-03-27T01:20:36.671Z,92.91
2019-03-27T01:21:36.650Z,93.02
2019-03-27T01:22:36.662Z,93.02
2019-03-27T01:23:36.829Z,92.81
2019-03-27T01:24:36.626Z,92.91
2019-03-27T01:25:36.628Z,93.16
2019-03-27T01:26:36.606Z,93.06
2019-03-27T01:27:36.599Z,93.06
2019-03-27T01:28:36.611Z,93.06
2019-03-27T01:29:36.561Z,93.68
2019-03-27T01:30:36.549Z,93.48
2019-03-27T01:31:36.577Z,93.68
2019-03-27T01:32:36.536Z,93.99
2019-03-27T01:33:36.525Z,94.20
2019-03-27T01:34:36.552Z,93.93
2019-03-27T01:35:36.498Z,94.41
2019-03-27T01:36:36.496Z,94.24
2019-03-27T01:37:36.473Z,94.66
2019-03-27T01:38:36.478Z,94.66
2019-03-27T01:39:36.502Z,94.24
2019-03-27T01:40:36.452Z,94.97
2019-03-27T01:41:36.442Z,94.66
2019-03-27T01:42:36.437Z,94.97
2019-03-27T01:43:36.421Z,94.87
2019-03-27T01:44:36.396Z,95.28
2019-03-27T01:45:36.456Z,94.81
2019-03-27T01:46:36.391Z,95.18
2019-03-27T01:47:36.393Z,95.39
2019-03-27T01:48:36.363Z,95.39
2019-03-27T01:49:36.344Z,96.01
2019-03-27T01:50:36.330Z,95.74
2019-03-27T01:51:36.342Z,96.52
2019-03-27T01:52:36.321Z,96.42
2019-03-27T01:53:36.300Z,96.52
2019-03-27T01:54:36.295Z,97.14
2019-03-27T01:55:36.297Z,97.14
2019-03-27T01:56:36.588Z,96.52
2019-03-27T01:57:36.263Z,96.52
2019-03-27T01:58:36.267Z,96.31
2019-03-27T01:59:36.245Z,95.96
2019-03-27T02:00:36.230Z,95.65
2019-03-27T02:01:36.258Z,95.65
2019-03-27T02:02:36.201Z,95.90
2019-03-27T02:03:36.196Z,95.80
2019-03-27T02:04:36.171Z,96.01
2019-03-27T02:05:36.195Z,95.90
2019-03-27T02:06:36.197Z,95.49
2019-03-27T02:07:36.251Z,95.95
2019-03-27T02:08:36.139Z,95.90
2019-03-27T02:09:36.136Z,95.80
2019-03-27T02:10:36.121Z,96.01
2019-03-27T02:11:36.111Z,96.01
2019-03-27T02:12:36.109Z,96.42
2019-03-27T02:13:36.080Z,97.04
2019-03-27T02:14:36.082Z,96.83
2019-03-27T02:15:36.056Z,96.94
2019-03-27T02:16:36.042Z,97.04
2019-03-27T02:17:36.064Z,96.83
2019-03-27T02:18:36.036Z,96.83
2019-03-27T02:19:36.033Z,96.94
2019-03-27T02:20:36.004Z,96.83
2019-03-27T02:21:36.043Z,96.83
2019-03-27T02:22:35.981Z,96.73
2019-03-27T02:23:35.994Z,96.73
2019-03-27T02:24:35.966Z,96.57
2019-03-27T02:25:35.945Z,96.73
2019-03-27T02:26:35.939Z,97.25
2019-03-27T02:27:35.947Z,97.45
2019-03-27T02:28:35.955Z,97.87
2019-03-27T02:29:35.902Z,97.56
2019-03-27T02:30:35.921Z,97.77
2019-03-27T02:31:35.900Z,97.45
2019-03-27T02:32:35.889Z,96.94
2019-03-27T02:33:35.863Z,96.83
2019-03-27T02:34:35.859Z,96.83
2019-03-27T02:35:35.869Z,96.48
2019-03-27T02:36:35.847Z,96.52
2019-03-27T02:37:35.825Z,96.58
2019-03-27T02:38:35.808Z,96.48
2019-03-27T02:39:35.797Z,96.73
2019-03-27T02:40:35.825Z,96.37
2019-03-27T02:41:35.788Z,96.83
2019-03-27T02:42:35.793Z,96.83
2019-03-27T02:43:35.773Z,96.79
2019-03-27T02:44:35.761Z,96.73
2019-03-27T02:45:35.745Z,96.52
2019-03-27T02:46:35.728Z,96.48
2019-03-27T02:47:35.737Z,97.25
2019-03-27T02:48:35.705Z,96.83
2019-03-27T02:49:35.701Z,96.83
2019-03-27T02:50:35.707Z,97.04
2019-03-27T02:51:35.723Z,97.83
2019-03-27T02:52:35.667Z,97.97
2019-03-27T02:53:35.637Z,98.03
2019-03-27T02:54:35.651Z,97.62
2019-03-27T02:55:35.620Z,97.31
2019-03-27T02:56:35.641Z,97.62
2019-03-27T02:57:35.594Z,97.93
2019-03-27T02:58:35.579Z,98.65
2019-03-27T02:59:35.581Z,97.06
2019-03-27T03:00:35.562Z,97.47
2019-03-27T03:01:35.620Z,97.47
2019-03-27T03:02:35.559Z,97.78
2019-03-27T03:03:35.536Z,96.95
2019-03-27T03:04:35.537Z,96.91
2019-03-27T03:05:35.512Z,96.39
2019-03-27T03:06:35.497Z,96.54
2019-03-27T03:07:35.518Z,96.59
2019-03-27T03:08:35.487Z,97.01
2019-03-27T03:09:35.482Z,96.29
2019-03-27T03:10:35.473Z,96.08
2019-03-27T03:11:35.455Z,96.08
2019-03-27T03:12:35.479Z,95.87
2019-03-27T03:13:35.435Z,95.87
2019-03-27T03:14:35.422Z,95.77
2019-03-27T03:15:35.419Z,96.08
2019-03-27T03:16:42.731Z,95.87
2019-03-27T03:17:36.425Z,96.39
2019-03-27T03:18:35.362Z,96.34
2019-03-27T03:19:35.360Z,96.49
2019-03-27T03:20:35.342Z,96.19
2019-03-27T03:21:35.340Z,96.29
2019-03-27T03:22:35.358Z,95.73
2019-03-27T03:23:35.333Z,95.62
2019-03-27T03:24:35.312Z,95.73
2019-03-27T03:25:35.298Z,95.94
2019-03-27T03:26:35.283Z,95.83
2019-03-27T03:27:35.300Z,96.14
2019-03-27T03:28:35.298Z,95.73
2019-03-27T03:29:35.243Z,96.03
2019-03-27T03:30:35.236Z,96.14
2019-03-27T03:31:35.227Z,96.03
2019-03-27T03:32:35.213Z,95.52
2019-03-27T03:33:35.231Z,95.94
2019-03-27T03:34:35.240Z,95.83
2019-03-27T03:35:35.188Z,95.94
2019-03-27T03:36:35.184Z,95.94
2019-03-27T03:37:35.160Z,95.98
2019-03-27T03:38:35.179Z,95.73
2019-03-27T03:39:35.134Z,96.34
2019-03-27T03:40:35.131Z,96.34
2019-03-27T03:41:35.133Z,96.34
2019-03-27T03:42:35.116Z,96.34
2019-03-27T03:43:35.097Z,96.24
2019-03-27T03:44:35.266Z,96.34
2019-03-27T03:45:35.086Z,96.76
2019-03-27T03:46:35.066Z,96.97
2019-03-27T03:47:35.054Z,96.97
2019-03-27T03:48:35.049Z,96.24
2019-03-27T03:49:35.062Z,96.20
2019-03-27T03:50:35.034Z,96.30
2019-03-27T03:51:35.006Z,95.89
2019-03-27T03:52:34.995Z,95.89
2019-03-27T03:53:35.008Z,95.99
2019-03-27T03:54:34.986Z,95.89
2019-03-27T03:55:34.995Z,95.48
2019-03-27T03:56:34.972Z,95.68
2019-03-27T03:57:34.950Z,95.37
2019-03-27T03:58:34.929Z,95.57
2019-03-27T03:59:34.930Z,94.96
2019-03-27T04:00:34.940Z,95.06
2019-03-27T04:01:34.893Z,94.92
2019-03-27T04:02:34.891Z,95.02
2019-03-27T04:03:34.880Z,95.32
2019-03-27T04:04:34.867Z,95.32
2019-03-27T04:05:34.871Z,95.43
2019-03-27T04:06:34.885Z,95.22
2019-03-27T04:07:34.844Z,95.32
2019-03-27T04:08:34.834Z,95.12
2019-03-27T04:09:34.811Z,95.12
2019-03-27T04:10:34.798Z,95.32
2019-03-27T04:11:34.786Z,95.32
2019-03-27T04:12:34.803Z,95.22
2019-03-27T04:13:34.781Z,95.12
2019-03-27T04:14:34.773Z,94.81
2019-03-27T04:15:34.745Z,95.53
2019-03-27T04:16:34.766Z,95.43
2019-03-27T04:17:34.760Z,95.22
2019-03-27T04:18:34.716Z,95.22
2019-03-27T04:19:34.714Z,95.32
2019-03-27T04:20:34.696Z,95.07
2019-03-27T04:21:34.711Z,95.22
2019-03-27T04:22:34.664Z,94.92
2019-03-27T04:23:34.654Z,94.87
2019-03-27T04:24:34.652Z,95.02
2019-03-27T04:26:00.425Z,94.35
2019-03-27T04:26:36.233Z,94.50
2019-03-27T04:27:34.647Z,94.71
2019-03-27T04:28:34.612Z,95.02
2019-03-27T04:29:34.605Z,95.43
2019-03-27T04:30:34.577Z,95.12
2019-03-27T04:31:34.579Z,95.12
2019-03-27T04:32:34.595Z,94.81
2019-03-27T04:33:34.550Z,94.92
2019-03-27T04:34:34.533Z,95.28
2019-03-27T04:35:34.531Z,95.43
2019-03-27T04:36:34.506Z,95.18
2019-03-27T04:37:34.518Z,95.32
2019-03-27T04:38:34.522Z,95.39
2019-03-27T04:39:34.494Z,95.18
2019-03-27T04:40:34.472Z,95.28
2019-03-27T04:41:34.459Z,95.53
2019-03-27T04:42:34.460Z,95.18
2019-03-27T04:43:34.455Z,94.87
2019-03-27T04:44:34.422Z,95.02
2019-03-27T04:45:34.411Z,94.77
2019-03-27T04:46:34.406Z,94.67
2019-03-27T04:47:34.407Z,94.97
2019-03-27T04:48:34.420Z,94.87
2019-03-27T04:49:34.388Z,94.46
2019-03-27T04:50:34.374Z,94.71
2019-03-27T04:51:34.357Z,94.67
2019-03-27T04:52:34.500Z,94.29
2019-03-27T04:53:34.319Z,94.67
2019-03-27T04:54:34.326Z,94.67
2019-03-27T04:55:34.299Z,94.35
2019-03-27T04:56:34.291Z,94.77
2019-03-27T04:57:34.291Z,94.35
2019-03-27T04:58:34.271Z,94.46
2019-03-27T04:59:34.297Z,94.56
2019-03-27T05:00:34.273Z,94.56
2019-03-27T05:01:34.235Z,93.84
2019-03-27T05:02:34.243Z,94.04
2019-03-27T05:03:34.228Z,94.35
2019-03-27T05:04:34.225Z,94.46
2019-03-27T05:05:34.211Z,94.25
2019-03-27T05:06:34.187Z,94.56
2019-03-27T05:07:34.189Z,94.35
2019-03-27T05:08:34.160Z,94.04
2019-03-27T05:09:34.282Z,94.46
2019-03-27T05:10:34.147Z,94.42
2019-03-27T05:11:34.136Z,94.67
2019-03-27T05:12:34.133Z,94.67
2019-03-27T05:13:34.111Z,94.77
2019-03-27T05:14:34.104Z,95.39
2019-03-27T05:15:34.130Z,95.03
2019-03-27T05:16:34.067Z,94.87
2019-03-27T05:17:45.180Z,95.39
2019-03-27T05:18:35.062Z,95.28
2019-03-27T05:19:34.028Z,95.76
2019-03-27T05:20:34.046Z,95.80
2019-03-27T05:21:34.030Z,95.70
2019-03-27T05:22:34.020Z,95.86
2019-03-27T05:23:34.021Z,95.80
2019-03-27T05:24:33.997Z,95.70
2019-03-27T05:25:34.018Z,95.76
2019-03-27T05:26:33.957Z,95.96
2019-03-27T05:27:36.301Z,96.21
2019-03-27T05:28:33.938Z,96.69
2019-03-27T05:29:33.969Z,96.79
2019-03-27T05:30:33.960Z,96.69
2019-03-27T05:31:33.921Z,96.79
2019-03-27T05:32:33.925Z,96.58
2019-03-27T05:33:33.897Z,96.48
2019-03-27T05:34:33.876Z,96.69
2019-03-27T05:35:33.894Z,96.58
2019-03-27T05:36:33.890Z,96.48
2019-03-27T05:37:33.841Z,96.48
2019-03-27T05:38:33.830Z,96.37
2019-03-27T05:39:33.828Z,96.48
2019-03-27T05:40:33.811Z,96.27
2019-03-27T05:41:33.822Z,96.17
2019-03-27T05:42:33.798Z,96.37
2019-03-27T05:43:33.789Z,96.27
2019-03-27T05:44:33.778Z,96.37
2019-03-27T05:45:33.761Z,96.48
2019-03-27T05:46:33.777Z,96.17
2019-03-27T05:47:33.730Z,96.27
2019-03-27T05:48:33.733Z,96.48
2019-03-27T05:49:33.712Z,96.27
2019-03-27T05:50:33.708Z,96.37
2019-03-27T05:51:33.708Z,96.48
2019-03-27T05:52:33.694Z,96.33
2019-03-27T05:53:33.675Z,96.48
2019-03-27T05:54:33.665Z,96.58
2019-03-27T05:55:33.655Z,96.64
2019-03-27T05:56:33.671Z,96.99
2019-03-27T05:57:33.647Z,96.23
2019-03-27T05:58:33.648Z,96.27
2019-03-27T05:59:33.603Z,96.17
2019-03-27T06:00:33.758Z,96.27
2019-03-27T06:01:33.592Z,96.17
2019-03-27T06:02:33.589Z,95.86
2019-03-27T06:03:33.588Z,96.79
2019-03-27T06:04:33.556Z,96.12
2019-03-27T06:05:33.543Z,96.84
2019-03-27T06:06:33.539Z,96.53
2019-03-27T06:07:33.518Z,97.47
2019-03-27T06:08:33.573Z,97.77
2019-03-27T06:09:33.494Z,98.70
2019-03-27T06:10:33.486Z,97.16
2019-03-27T06:11:33.481Z,97.20
2019-03-27T06:12:33.459Z,97.36
2019-03-27T06:13:33.481Z,97.26
2019-03-27T06:14:33.456Z,97.26
2019-03-27T06:15:33.441Z,97.41
2019-03-27T06:16:33.424Z,97.56
2019-03-27T06:17:33.432Z,97.56
2019-03-27T06:18:33.399Z,97.67
2019-03-27T06:19:33.408Z,97.56
2019-03-27T06:20:33.503Z,97.47
2019-03-27T06:21:33.372Z,97.26
2019-03-27T06:22:33.386Z,97.88
2019-03-27T06:23:33.342Z,96.84
2019-03-27T06:24:33.343Z,97.16
2019-03-27T06:25:33.372Z,97.77
2019-03-27T06:26:33.333Z,96.74
2019-03-27T06:27:33.312Z,96.84
2019-03-27T06:28:33.298Z,97.67
2019-03-27T06:29:33.279Z,97.67
2019-03-27T06:30:33.263Z,97.36
2019-03-27T06:31:33.280Z,96.64
2019-03-27T06:32:33.271Z,97.05
2019-03-27T06:33:33.252Z,96.12
2019-03-27T06:34:33.240Z,96.49
2019-03-27T06:35:33.228Z,96.23
2019-03-27T06:36:33.214Z,95.67
2019-03-27T06:37:33.193Z,95.67
2019-03-27T06:38:33.194Z,95.21
2019-03-27T06:39:33.175Z,95.31
2019-03-27T06:40:33.165Z,94.70
2019-03-27T06:41:33.164Z,94.28
2019-03-27T06:42:33.140Z,94.65
2019-03-27T06:43:33.129Z,93.66
2019-03-27T06:44:33.099Z,93.83
2019-03-27T06:45:33.105Z,93.52
2019-03-27T06:46:33.133Z,93.48
2019-03-27T06:47:33.091Z,92.65
2019-03-27T06:48:33.078Z,92.55
2019-03-27T06:49:33.050Z,91.83
2019-03-27T06:50:33.051Z,91.72
2019-03-27T06:51:39.953Z,91.72
2019-03-27T06:52:34.051Z,91.83
2019-03-27T06:53:33.026Z,91.58
2019-03-27T06:54:33.038Z,91.27
2019-03-27T06:55:32.995Z,90.69
2019-03-27T06:56:32.977Z,90.80
2019-03-27T06:57:32.972Z,90.80
2019-03-27T06:58:32.975Z,90.86
2019-03-27T06:59:32.974Z,90.55
2019-03-27T07:00:32.998Z,90.45
2019-03-27T07:01:32.925Z,90.34
2019-03-27T07:02:32.912Z,90.30
2019-03-27T07:03:32.913Z,89.03
2019-03-27T07:04:32.892Z,88.82
2019-03-27T07:05:32.895Z,88.72
2019-03-27T07:06:32.873Z,88.20
2019-03-27T07:07:32.881Z,88.06
2019-03-27T07:08:32.891Z,86.83
2019-03-27T07:09:32.836Z,87.96
2019-03-27T07:10:32.842Z,87.55
2019-03-27T07:11:32.835Z,86.93
2019-03-27T07:12:32.813Z,87.13
2019-03-27T07:13:32.786Z,86.89
2019-03-27T07:14:32.807Z,86.62
2019-03-27T07:15:35.529Z,86.27
2019-03-27T07:16:32.769Z,85.70
2019-03-27T07:17:32.758Z,85.55
2019-03-27T07:18:40.116Z,84.42
2019-03-27T07:19:33.733Z,84.42
2019-03-27T07:20:32.725Z,84.74
2019-03-27T07:21:32.707Z,84.32
2019-03-27T07:22:32.718Z,83.98
2019-03-27T07:23:32.700Z,84.39
2019-03-27T07:24:32.687Z,83.32
2019-03-27T07:25:32.672Z,82.56
2019-03-27T07:26:32.664Z,81.16
2019-03-27T07:27:32.631Z,83.18
2019-03-27T07:28:32.622Z,82.15
2019-03-27T07:29:32.650Z,80.82
2019-03-27T07:30:32.625Z,80.72
2019-03-27T07:31:32.601Z,80.82
2019-03-27T07:32:32.595Z,81.54
2019-03-27T07:33:32.592Z,80.72
2019-03-27T07:34:32.607Z,80.00
2019-03-27T07:35:32.571Z,79.38
2019-03-27T07:36:32.535Z,80.10
2019-03-27T07:37:32.543Z,80.21
2019-03-27T07:38:32.532Z,79.49
2019-03-27T07:39:32.508Z,80.00
2019-03-27T07:40:32.518Z,78.83
2019-03-27T07:41:32.479Z,79.75
2019-03-27T07:42:32.482Z,79.86
2019-03-27T07:43:32.522Z,78.53
2019-03-27T07:44:32.461Z,78.53
2019-03-27T07:45:32.457Z,77.81
2019-03-27T07:46:32.419Z,79.86
2019-03-27T07:47:32.436Z,77.87
2019-03-27T07:48:32.399Z,76.95
2019-03-27T07:49:32.401Z,77.36
2019-03-27T07:50:32.387Z,77.26
2019-03-27T07:51:32.395Z,75.73
2019-03-27T07:52:32.395Z,76.54
2019-03-27T07:53:32.345Z,75.93
2019-03-27T07:54:32.335Z,75.62
2019-03-27T07:55:32.325Z,75.01
2019-03-27T07:56:32.345Z,76.61
2019-03-27T07:57:32.308Z,75.79
2019-03-27T07:58:32.298Z,76.75
2019-03-27T07:59:32.283Z,77.02
2019-03-27T08:00:32.271Z,75.59
2019-03-27T08:01:32.291Z,76.24
2019-03-27T08:02:32.256Z,76.75
2019-03-27T08:03:32.251Z,77.06
2019-03-27T08:04:32.231Z,77.20
2019-03-27T08:05:32.214Z,76.58
2019-03-27T08:06:32.237Z,76.58
2019-03-27T08:07:32.194Z,75.76
2019-03-27T08:08:32.177Z,76.48
2019-03-27T08:09:32.178Z,74.94
2019-03-27T08:10:32.166Z,74.80
2019-03-27T08:11:32.195Z,76.48
2019-03-27T08:12:32.165Z,76.17
2019-03-27T08:13:32.137Z,76.68
2019-03-27T08:14:32.112Z,76.99
2019-03-27T08:15:32.117Z,74.73
2019-03-27T08:16:32.102Z,76.37
2019-03-27T08:17:32.077Z,77.23
2019-03-27T08:18:32.089Z,77.13
2019-03-27T08:19:32.071Z,76.78
2019-03-27T08:20:32.113Z,76.92
2019-03-27T08:21:32.051Z,76.51
2019-03-27T08:22:32.038Z,76.62
2019-03-27T08:23:32.031Z,76.82
2019-03-27T08:24:32.009Z,77.23
2019-03-27T08:25:31.996Z,76.68
2019-03-27T08:26:31.978Z,76.68
2019-03-27T08:27:31.970Z,76.78
2019-03-27T08:28:31.985Z,76.58
2019-03-27T08:29:31.966Z,75.04
2019-03-27T08:30:31.947Z,75.45
2019-03-27T08:31:31.927Z,76.68
2019-03-27T08:32:31.923Z,77.03
2019-03-27T08:33:31.938Z,77.09
2019-03-27T08:34:31.928Z,77.50
2019-03-27T08:35:31.893Z,77.40
2019-03-27T08:36:31.885Z,77.09
2019-03-27T08:37:31.862Z,74.70
2019-03-27T08:38:31.892Z,75.42
2019-03-27T08:39:31.835Z,75.52
2019-03-27T08:40:31.835Z,75.42
2019-03-27T08:41:31.834Z,75.93
2019-03-27T08:42:31.827Z,75.01
2019-03-27T08:43:31.811Z,76.44
2019-03-27T08:44:31.817Z,75.01
2019-03-27T08:45:31.780Z,74.70
2019-03-27T08:46:31.760Z,75.62
2019-03-27T08:47:31.756Z,76.65
2019-03-27T08:48:31.752Z,76.34
2019-03-27T08:49:31.752Z,75.01
2019-03-27T08:50:31.792Z,75.82
2019-03-27T08:51:31.713Z,76.95
2019-03-27T08:52:31.694Z,76.95
2019-03-27T08:53:31.700Z,76.95
2019-03-27T08:54:31.688Z,77.06
2019-03-27T08:55:31.692Z,77.16
2019-03-27T08:56:31.655Z,75.99
2019-03-27T08:57:31.658Z,74.66
2019-03-27T08:58:31.627Z,74.56
2019-03-27T08:59:31.611Z,75.59
2019-03-27T09:00:31.632Z,75.14
2019-03-27T09:01:31.600Z,75.14
2019-03-27T09:02:31.598Z,73.68
2019-03-27T09:03:31.571Z,73.57
2019-03-27T09:04:31.564Z,74.15
2019-03-27T09:05:31.584Z,72.79
2019-03-27T09:06:34.104Z,74.02
2019-03-27T09:07:31.551Z,72.89
2019-03-27T09:08:31.533Z,71.01
2019-03-27T09:09:31.510Z,72.62
2019-03-27T09:10:31.493Z,70.57
2019-03-27T09:11:31.500Z,71.50
2019-03-27T09:12:31.494Z,71.19
2019-03-27T09:13:31.473Z,70.51
2019-03-27T09:14:31.467Z,70.88
2019-03-27T09:15:31.449Z,71.22
2019-03-27T09:16:31.461Z,70.61
2019-03-27T09:17:31.430Z,70.61
2019-03-27T09:18:31.411Z,72.04
2019-03-27T09:19:36.019Z,72.75
2019-03-27T09:20:32.398Z,72.75
2019-03-27T09:21:31.407Z,70.88
2019-03-27T09:22:31.367Z,68.84
2019-03-27T09:23:31.368Z,69.62
2019-03-27T09:24:31.339Z,68.33
2019-03-27T09:25:31.337Z,66.85
2019-03-27T09:26:31.357Z,61.75
2019-03-27T09:27:31.330Z,61.69
2019-03-27T09:28:31.306Z,58.23
2019-03-27T09:29:31.280Z,56.79
2019-03-27T09:30:31.275Z,56.71
2019-03-27T09:31:43.978Z,54.61
2019-03-27T09:32:32.271Z,54.36
2019-03-27T09:33:31.253Z,57.32
2019-03-27T09:34:31.242Z,59.10
2019-03-27T09:35:31.219Z,58.72
2019-03-27T09:36:31.208Z,59.18
2019-03-27T09:37:31.241Z,59.28
2019-03-27T09:38:31.205Z,59.52
2019-03-27T09:39:31.180Z,61.30
2019-03-27T09:40:31.176Z,62.52
2019-03-27T09:41:31.171Z,61.74
2019-03-27T09:42:31.146Z,63.09
2019-03-27T09:43:31.150Z,63.62
2019-03-27T09:44:31.135Z,62.51
2019-03-27T09:45:31.114Z,64.78
2019-03-27T09:46:31.109Z,66.30
2019-03-27T09:47:34.419Z,64.70
2019-03-27T09:48:31.111Z,66.74
2019-03-27T09:49:31.066Z,64.70
2019-03-27T09:50:31.098Z,67.08
2019-03-27T09:51:31.068Z,66.88
2019-03-27T09:52:31.036Z,68.23
2019-03-27T09:53:31.040Z,67.32
2019-03-27T09:54:31.031Z,65.37
2019-03-27T09:55:31.001Z,66.60
2019-03-27T09:56:30.986Z,66.70
2019-03-27T09:57:31.016Z,67.04
2019-03-27T09:58:30.993Z,68.77
2019-03-27T09:59:30.963Z,67.48
2019-03-27T10:00:30.956Z,68.50
2019-03-27T10:01:30.935Z,69.11
2019-03-27T10:02:30.942Z,67.99
2019-03-27T10:03:30.916Z,68.80
2019-03-27T10:04:30.922Z,67.18
2019-03-27T10:05:30.923Z,69.24
2019-03-27T10:06:30.885Z,68.53
2019-03-27T10:07:30.877Z,68.84
2019-03-27T10:08:30.859Z,68.84
2019-03-27T10:09:30.851Z,68.77
2019-03-27T10:10:30.848Z,69.18
2019-03-27T10:11:30.857Z,69.38
2019-03-27T10:12:30.817Z,70.30
2019-03-27T10:13:30.811Z,70.61
2019-03-27T10:14:30.787Z,70.00
2019-03-27T10:15:30.786Z,70.61
2019-03-27T10:16:30.790Z,70.61
2019-03-27T10:17:30.775Z,69.76
2019-03-27T10:18:30.756Z,69.86
2019-03-27T10:19:30.742Z,70.27
2019-03-27T10:20:30.734Z,68.33
2019-03-27T10:21:30.728Z,69.82
2019-03-27T10:22:30.704Z,69.62
2019-03-27T10:23:30.702Z,69.11
2019-03-27T10:24:30.704Z,69.90
2019-03-27T10:25:30.672Z,69.69
2019-03-27T10:26:30.661Z,69.79
2019-03-27T10:27:30.639Z,68.67
2019-03-27T10:28:30.661Z,68.37
2019-03-27T10:29:30.634Z,68.67
2019-03-27T10:30:30.618Z,69.79
2019-03-27T10:31:30.617Z,67.82
2019-03-27T10:32:30.603Z,68.54
2019-03-27T10:33:30.578Z,68.95
2019-03-27T10:34:30.585Z,67.01
2019-03-27T10:35:30.562Z,67.96
2019-03-27T10:36:30.547Z,66.94
2019-03-27T10:37:30.545Z,66.77
2019-03-27T10:38:30.546Z,69.01
2019-03-27T10:39:30.531Z,68.94
2019-03-27T10:40:30.498Z,68.94
2019-03-27T10:41:30.493Z,68.53
2019-03-27T10:42:30.489Z,69.11
2019-03-27T10:43:30.473Z,68.63
2019-03-27T10:44:30.489Z,68.70
2019-03-27T10:45:30.443Z,68.84
2019-03-27T10:46:30.464Z,68.60
2019-03-27T10:47:30.419Z,68.26
2019-03-27T10:48:30.411Z,68.06
2019-03-27T10:49:30.413Z,68.57
2019-03-27T10:50:30.419Z,67.14
2019-03-27T10:51:30.407Z,68.37
2019-03-27T10:52:30.380Z,67.76
2019-03-27T10:53:30.354Z,67.24
2019-03-27T10:54:30.331Z,67.32
2019-03-27T10:55:30.374Z,66.63
2019-03-27T10:56:30.337Z,68.37
2019-03-27T10:57:30.308Z,66.63
2019-03-27T10:58:30.363Z,67.96
2019-03-27T10:59:30.293Z,67.24
2019-03-27T11:00:30.308Z,68.88
2019-03-27T11:01:30.274Z,68.54
2019-03-27T11:02:30.279Z,66.50
2019-03-27T11:03:30.257Z,67.99
2019-03-27T11:04:30.236Z,66.60
2019-03-27T11:05:30.217Z,66.91
2019-03-27T11:06:30.223Z,67.32
2019-03-27T11:07:30.198Z,66.77
2019-03-27T11:08:30.212Z,66.97
2019-03-27T11:09:30.181Z,67.18
2019-03-27T11:10:30.175Z,66.60
2019-03-27T11:11:30.164Z,67.52
2019-03-27T11:12:30.140Z,67.32
2019-03-27T11:13:30.151Z,67.82
2019-03-27T11:14:37.905Z,66.39
2019-03-27T11:15:31.115Z,66.09
2019-03-27T11:16:30.105Z,66.80
2019-03-27T11:17:30.109Z,68.03
2019-03-27T11:18:30.084Z,66.19
2019-03-27T11:19:33.322Z,66.39
2019-03-27T11:20:31.570Z,66.70
2019-03-27T11:21:30.084Z,66.09
2019-03-27T11:22:30.039Z,67.41
2019-03-27T11:23:30.039Z,65.89
2019-03-27T11:24:30.020Z,66.22
2019-03-27T11:25:32.958Z,66.91
2019-03-27T11:26:29.996Z,66.42
2019-03-27T11:27:30.013Z,66.66
2019-03-27T11:28:29.980Z,68.80
2019-03-27T11:29:29.955Z,68.50
2019-03-27T11:30:29.950Z,68.33
2019-03-27T11:31:29.941Z,70.34
2019-03-27T11:32:29.959Z,67.89
2019-03-27T11:33:29.950Z,69.52
2019-03-27T11:34:29.908Z,68.67
2019-03-27T11:35:29.927Z,68.54
2019-03-27T11:36:29.893Z,68.20
2019-03-27T11:37:29.872Z,67.25
2019-03-27T11:38:29.872Z,65.83
2019-03-27T11:39:29.868Z,64.37
2019-03-27T11:40:29.830Z,64.90
2019-03-27T11:41:29.832Z,64.17
2019-03-27T11:42:29.859Z,63.86
2019-03-27T11:43:29.807Z,64.57
2019-03-27T11:44:29.801Z,64.70
2019-03-27T11:45:29.799Z,65.11
2019-03-27T11:46:32.248Z,64.90
2019-03-27T11:47:29.763Z,64.90
2019-03-27T11:48:29.778Z,65.25
2019-03-27T11:49:29.746Z,65.52
2019-03-27T11:50:29.717Z,67.38
2019-03-27T11:51:29.709Z,65.75
2019-03-27T11:52:30.009Z,67.29
2019-03-27T11:53:29.696Z,67.08
2019-03-27T11:54:29.701Z,66.67
2019-03-27T11:55:29.675Z,65.86
2019-03-27T11:56:29.667Z,65.55
2019-03-27T11:57:29.671Z,66.36
2019-03-27T11:58:29.641Z,66.16
2019-03-27T11:59:29.624Z,66.47
2019-03-27T12:00:29.634Z,66.06
2019-03-27T12:01:39.593Z,67.35
2019-03-27T12:02:30.592Z,66.61
2019-03-27T12:03:29.583Z,65.86
2019-03-27T12:04:29.602Z,64.51
2019-03-27T12:05:29.563Z,63.80
2019-03-27T12:06:29.552Z,64.61
2019-03-27T12:07:29.553Z,66.00
2019-03-27T12:08:29.537Z,61.44
2019-03-27T12:09:29.530Z,59.39
2019-03-27T12:10:29.498Z,59.66
2019-03-27T12:11:29.499Z,60.88
2019-03-27T12:12:29.545Z,60.07
2019-03-27T12:13:29.471Z,60.40
2019-03-27T12:14:29.463Z,59.48
2019-03-27T12:15:29.440Z,59.72
2019-03-27T12:16:29.429Z,60.74
2019-03-27T12:17:29.429Z,60.56
2019-03-27T12:18:31.789Z,60.79
2019-03-27T12:19:30.398Z,62.21
2019-03-27T12:20:29.407Z,62.41
2019-03-27T12:21:29.379Z,62.45
2019-03-27T12:22:29.371Z,61.83
2019-03-27T12:23:29.373Z,62.35
2019-03-27T12:24:29.354Z,61.71
2019-03-27T12:25:29.346Z,62.11
2019-03-27T12:26:29.363Z,61.71
2019-03-27T12:27:29.323Z,61.91
2019-03-27T12:28:29.341Z,61.83
2019-03-27T12:29:29.299Z,63.57
2019-03-27T12:30:29.286Z,62.65
2019-03-27T12:31:29.277Z,64.28
2019-03-27T12:32:29.271Z,64.61
2019-03-27T12:33:29.250Z,64.00
2019-03-27T12:34:29.253Z,64.41
2019-03-27T12:35:29.232Z,63.53
2019-03-27T12:36:29.231Z,64.23
2019-03-27T12:37:29.230Z,64.06
2019-03-27T12:38:29.193Z,64.67
2019-03-27T12:39:29.196Z,64.26
2019-03-27T12:40:29.170Z,64.47
2019-03-27T12:41:29.164Z,65.49
2019-03-27T12:42:29.144Z,64.57
2019-03-27T12:43:29.145Z,65.19
2019-03-27T12:44:29.139Z,64.67
2019-03-27T12:45:29.127Z,64.57
2019-03-27T12:46:29.106Z,64.06
2019-03-27T12:47:29.113Z,64.98
2019-03-27T12:48:29.081Z,63.96
2019-03-27T12:49:29.097Z,64.67
2019-03-27T12:50:29.068Z,65.80
2019-03-27T12:51:29.071Z,64.50
2019-03-27T12:52:29.049Z,66.03